Time;durP1;ratioP1;P1;durP2;ratioP2;P2;SDS_P1;SDS_P2;PMS_P1;PMS_P2;Temp;Humidity;BMP_temperature;BMP_pressure;BME280_temperature;BME280_humidity;BME280_pressure;Samples;Min_cycle;Max_cycle;Signal;HPM_P1;HPM_P2
2023/01/10 00:01:22;;;;;;;;;;;;;;;24.87;26.91;97132.88;4984310;28;19922;-86
2023/01/10 00:03:48;;;;;;;;;;;;;;;25.25;26.15;97135.34;4978602;28;19932;-86
2023/01/10 00:06:15;;;;;;;;;;;;;;;25.47;25.78;97143.69;4987717;28;19965;-86
2023/01/10 00:08:41;;;;;;;;;;;;;;;25.18;26.47;97146.88;4983687;28;19918;-86
2023/01/10 00:13:52;;;;;;;;;;;;;;;24.65;26.93;97152.56;4994828;28;19929;-86
2023/01/10 00:16:18;;;;;;;;;;;;;;;25.32;25.85;97147.06;4983162;28;19930;-86
2023/01/10 00:18:44;;;;;;;;;;;;;;;25.53;25.71;97144.66;4989463;28;19918;-86
2023/01/10 00:21:10;;;;;;;;;;;;;;;25.81;25.35;97151.88;4989081;28;19922;-86
2023/01/10 00:23:37;;;;;;;;;;;;;;;25.71;25.50;97144.66;4994650;28;19924;-86
2023/01/10 00:26:03;;;;;;;;;;;;;;;26.09;25.20;97153.44;4990618;28;19926;-86
2023/01/10 00:28:33;;;;;;;;;;;;;;;25.82;25.44;97150.59;4993791;28;19928;-86
2023/01/10 00:31:05;;;;;;;;;;;;;;;25.83;25.34;97161.41;4978988;28;19926;-86
2023/01/10 00:33:32;;;;;;;;;;;;;;;25.86;25.18;97165.28;4986369;28;19922;-86
2023/01/10 00:35:59;;;;;;;;;;;;;;;25.69;25.31;97164.03;4991299;28;19975;-86
2023/01/10 00:38:25;;;;;;;;;;;;;;;25.59;25.49;97157.63;4989613;28;19922;-86
2023/01/10 00:40:51;;;;;;;;;;;;;;;25.61;25.72;97163.53;4981739;28;19976;-86
2023/01/10 00:46:02;;;;;;;;;;;;;;;25.70;25.34;97172.00;4989478;28;20024;-86
2023/01/10 00:48:28;;;;;;;;;;;;;;;24.89;26.60;97185.78;4992367;28;19940;-86
2023/01/10 00:50:54;;;;;;;;;;;;;;;25.25;26.43;97171.88;4988700;28;19922;-86
2023/01/10 00:53:21;;;;;;;;;;;;;;;25.91;25.69;97176.69;4983778;28;19941;-86
2023/01/10 00:55:47;;;;;;;;;;;;;;;24.95;26.65;97184.69;4991291;28;19929;-86
2023/01/10 00:58:13;;;;;;;;;;;;;;;25.17;26.25;97182.63;4994301;28;19922;-86
2023/01/10 01:00:40;;;;;;;;;;;;;;;25.60;25.82;97184.47;4985274;28;20445;-86
2023/01/10 01:03:06;;;;;;;;;;;;;;;25.54;25.58;97179.94;4980075;28;20004;-86
2023/01/10 01:05:33;;;;;;;;;;;;;;;25.53;25.99;97196.03;4991481;28;19922;-86
2023/01/10 01:07:59;;;;;;;;;;;;;;;25.91;25.41;97189.97;4988950;28;20009;-86
2023/01/10 01:10:25;;;;;;;;;;;;;;;26.34;25.04;97189.69;4988533;28;19953;-86
2023/01/10 01:12:52;;;;;;;;;;;;;;;26.60;24.67;97193.72;4986093;28;20017;-87
2023/01/10 01:15:18;;;;;;;;;;;;;;;26.50;24.76;97191.38;4984786;28;20428;-87
2023/01/10 01:17:44;;;;;;;;;;;;;;;26.64;24.55;97194.34;4992138;28;20385;-87
2023/01/10 01:20:10;;;;;;;;;;;;;;;26.32;24.45;97195.03;4984812;28;20016;-86
2023/01/10 01:22:36;;;;;;;;;;;;;;;25.57;25.74;97188.22;4986917;28;19945;-87
2023/01/10 01:25:03;;;;;;;;;;;;;;;25.81;25.66;97197.63;4981067;28;20396;-87
2023/01/10 01:27:30;;;;;;;;;;;;;;;25.99;24.94;97199.69;4978269;28;19926;-86
2023/01/10 01:29:56;;;;;;;;;;;;;;;25.95;25.15;97197.00;4983710;28;19933;-86
2023/01/10 01:32:22;;;;;;;;;;;;;;;25.23;26.17;97192.00;4985746;28;19922;-87
2023/01/10 01:34:48;;;;;;;;;;;;;;;24.96;26.46;97205.16;4986821;28;19926;-87
2023/01/10 01:37:15;;;;;;;;;;;;;;;25.75;25.68;97201.53;4990684;28;19922;-86
2023/01/10 01:39:41;;;;;;;;;;;;;;;25.84;25.50;97198.72;4986460;28;20020;-86
2023/01/10 01:42:19;;;;;;;;;;;;;;;25.90;25.49;97202.50;4983380;28;19926;-87
2023/01/10 01:44:46;;;;;;;;;;;;;;;25.22;26.27;97206.50;4982483;28;20037;-87
2023/01/10 01:47:38;;;;;;;;;;;;;;;25.13;26.87;97204.47;4984888;28;19934;-86
2023/01/10 01:50:04;;;;;;;;;;;;;;;25.82;25.67;97198.41;4971902;28;19921;-87
2023/01/10 01:52:33;;;;;;;;;;;;;;;25.66;25.54;97210.72;4988735;28;19922;-87
2023/01/10 01:55:02;;;;;;;;;;;;;;;25.65;25.70;97205.59;4984406;28;20402;-87
2023/01/10 01:57:29;;;;;;;;;;;;;;;25.15;26.33;97210.41;4988359;28;19957;-87
2023/01/10 01:59:55;;;;;;;;;;;;;;;25.06;26.57;97213.19;4977228;28;19926;-87
2023/01/10 02:02:27;;;;;;;;;;;;;;;25.14;26.07;97216.47;4985663;28;20374;-87
2023/01/10 02:04:56;;;;;;;;;;;;;;;24.86;26.58;97217.56;4974865;28;19922;-87
2023/01/10 02:07:24;;;;;;;;;;;;;;;24.72;26.72;97221.69;4976558;28;19957;-87
2023/01/10 02:09:54;;;;;;;;;;;;;;;25.16;26.06;97222.41;4986189;28;20286;-87
2023/01/10 02:12:21;;;;;;;;;;;;;;;25.22;25.86;97215.72;4979302;28;20405;-87
2023/01/10 02:14:49;;;;;;;;;;;;;;;25.75;25.51;97212.75;4982050;28;19972;-87
2023/01/10 02:17:15;;;;;;;;;;;;;;;25.45;25.73;97222.84;4982768;28;19925;-88
2023/01/10 02:19:47;;;;;;;;;;;;;;;25.68;25.35;97215.88;4979697;28;19929;-88
2023/01/10 02:22:34;;;;;;;;;;;;;;;25.31;26.06;97220.59;4976814;28;19918;-89
2023/01/10 02:25:05;;;;;;;;;;;;;;;24.28;27.14;97231.34;4983155;28;20263;-89
2023/01/10 02:27:36;;;;;;;;;;;;;;;24.84;26.48;97234.88;4962734;28;20273;-89
2023/01/10 02:30:28;;;;;;;;;;;;;;;24.63;26.70;97233.66;4981304;28;20433;-89
2023/01/10 02:32:59;;;;;;;;;;;;;;;23.08;28.84;97238.19;4979345;28;20014;-90
2023/01/10 02:35:43;;;;;;;;;;;;;;;22.32;30.64;97240.78;4984213;28;19965;-90
2023/01/10 02:38:34;;;;;;;;;;;;;;;22.73;29.58;97245.66;4982051;28;19929;-90
2023/01/10 02:41:04;;;;;;;;;;;;;;;23.38;28.77;97240.44;4989712;28;19921;-90
2023/01/10 02:43:33;;;;;;;;;;;;;;;23.55;28.39;97239.06;4991822;28;20296;-91
2023/01/10 02:46:03;;;;;;;;;;;;;;;22.61;29.92;97252.00;4985772;28;19929;-92
2023/01/10 02:48:29;;;;;;;;;;;;;;;23.57;28.51;97242.19;4987977;28;19949;-91
2023/01/10 02:50:55;;;;;;;;;;;;;;;24.35;27.31;97254.34;4991528;28;19926;-91
2023/01/10 02:53:21;;;;;;;;;;;;;;;24.85;26.27;97255.34;4976070;28;19922;-91
2023/01/10 02:56:08;;;;;;;;;;;;;;;23.69;28.14;97249.78;4991812;28;19928;-92
2023/01/10 02:58:34;;;;;;;;;;;;;;;22.40;31.40;97261.75;4986783;28;19961;-94
2023/01/10 03:01:07;;;;;;;;;;;;;;;22.31;31.77;97264.38;4981728;28;19957;-94
2023/01/10 03:03:36;;;;;;;;;;;;;;;21.02;34.04;97266.41;4989402;28;19922;-94
2023/01/10 03:06:10;;;;;;;;;;;;;;;21.41;33.41;97269.09;4986671;28;19922;-92
2023/01/10 03:08:39;;;;;;;;;;;;;;;19.93;34.74;97283.31;4981372;28;19922;-93
2023/01/10 03:11:06;;;;;;;;;;;;;;;20.04;35.91;97283.94;4987357;28;19968;-92
2023/01/10 03:13:35;;;;;;;;;;;;;;;21.78;32.80;97267.78;4986318;28;19922;-91
2023/01/10 03:16:03;;;;;;;;;;;;;;;21.02;35.11;97278.38;4980847;28;19922;-91
2023/01/10 03:18:37;;;;;;;;;;;;;;;18.44;36.85;97286.69;4988401;28;20009;-91
2023/01/10 03:21:05;;;;;;;;;;;;;;;18.59;37.62;97283.38;4986078;28;19917;-91
2023/01/10 03:23:32;;;;;;;;;;;;;;;16.85;40.86;97299.16;4983583;28;19945;-90
2023/01/10 03:25:59;;;;;;;;;;;;;;;18.80;38.55;97295.41;4977899;28;19926;-90
2023/01/10 03:28:29;;;;;;;;;;;;;;;21.38;33.63;97291.56;4974759;28;19922;-91
2023/01/10 03:30:58;;;;;;;;;;;;;;;17.88;39.99;97310.31;4986439;28;19926;-91
2023/01/10 03:33:26;;;;;;;;;;;;;;;19.28;36.95;97299.50;4971179;28;20029;-92
2023/01/10 03:35:52;;;;;;;;;;;;;;;18.08;38.50;97308.56;4985927;28;19918;-90
2023/01/10 03:38:41;;;;;;;;;;;;;;;20.09;35.20;97313.31;4982098;28;19930;-90
2023/01/10 03:41:17;;;;;;;;;;;;;;;21.52;31.85;97305.94;4959925;28;20021;-89
2023/01/10 03:46:41;;;;;;;;;;;;;;;18.77;35.67;97335.97;4985827;28;19980;-87
2023/01/10 03:49:08;;;;;;;;;;;;;;;20.39;33.93;97346.63;4983970;28;19968;-86
2023/01/10 03:51:36;;;;;;;;;;;;;;;19.47;35.52;97339.78;4979367;28;20405;-86
2023/01/10 03:54:02;;;;;;;;;;;;;;;19.28;35.84;97346.78;4983707;28;20033;-86
2023/01/10 03:56:28;;;;;;;;;;;;;;;19.15;36.19;97343.03;4991681;28;19926;-86
2023/01/10 03:58:55;;;;;;;;;;;;;;;20.74;33.39;97339.56;4981480;28;20016;-86
2023/01/10 04:01:21;;;;;;;;;;;;;;;20.75;33.44;97349.53;4988474;28;19930;-87
2023/01/10 04:03:47;;;;;;;;;;;;;;;21.56;31.00;97340.19;4995871;28;19969;-87
2023/01/10 04:06:13;;;;;;;;;;;;;;;21.78;31.04;97341.22;4983401;28;20378;-86
2023/01/10 04:08:39;;;;;;;;;;;;;;;21.95;30.93;97356.03;4981094;28;19929;-86
2023/01/10 04:11:05;;;;;;;;;;;;;;;21.67;31.02;97357.47;4988691;28;19926;-87
2023/01/10 04:13:33;;;;;;;;;;;;;;;21.35;32.17;97360.97;4988129;28;20137;-87
2023/01/10 04:15:59;;;;;;;;;;;;;;;21.04;32.56;97370.84;4982258;28;19929;-87
2023/01/10 04:18:25;;;;;;;;;;;;;;;21.05;32.08;97369.63;4985793;28;19957;-86
2023/01/10 04:20:51;;;;;;;;;;;;;;;19.27;34.49;97375.06;4983013;28;19926;-86
2023/01/10 04:23:17;;;;;;;;;;;;;;;17.00;38.46;97381.09;4970623;28;20271;-87
2023/01/10 04:25:45;;;;;;;;;;;;;;;17.91;37.93;97376.94;4986279;28;19922;-86
2023/01/10 04:28:11;;;;;;;;;;;;;;;17.58;39.09;97387.91;4983328;28;20294;-87
2023/01/10 04:30:37;;;;;;;;;;;;;;;16.37;41.02;97395.94;4981365;28;19926;-86
2023/01/10 04:33:03;;;;;;;;;;;;;;;17.65;38.58;97399.75;4972572;28;19918;-86
2023/01/10 04:35:29;;;;;;;;;;;;;;;17.41;39.35;97395.13;4978699;28;19969;-86
2023/01/10 04:37:55;;;;;;;;;;;;;;;16.59;40.04;97402.25;4981208;28;19930;-86
2023/01/10 04:40:22;;;;;;;;;;;;;;;16.02;41.70;97404.28;4979723;28;19926;-85
2023/01/10 04:42:48;;;;;;;;;;;;;;;16.57;42.59;97415.69;4991904;28;19921;-85
2023/01/10 04:45:16;;;;;;;;;;;;;;;17.15;38.91;97415.09;4984451;28;19945;-86
2023/01/10 04:47:42;;;;;;;;;;;;;;;16.35;40.33;97425.22;4980921;28;19926;-86
2023/01/10 04:50:08;;;;;;;;;;;;;;;15.25;43.29;97429.84;4985630;28;20813;-85
2023/01/10 04:52:34;;;;;;;;;;;;;;;17.12;38.92;97424.22;4986478;28;19918;-86
2023/01/10 04:55:00;;;;;;;;;;;;;;;17.63;37.23;97429.91;4974744;28;20377;-86
2023/01/10 04:57:26;;;;;;;;;;;;;;;15.88;40.67;97441.06;4983328;28;19922;-86
2023/01/10 04:59:52;;;;;;;;;;;;;;;19.04;35.07;97433.41;4981715;28;19933;-86
2023/01/10 05:02:18;;;;;;;;;;;;;;;16.91;39.98;97447.28;4977277;28;19955;-86
2023/01/10 05:04:44;;;;;;;;;;;;;;;17.84;39.54;97443.66;4982637;28;19921;-85
2023/01/10 05:07:11;;;;;;;;;;;;;;;18.32;37.00;97454.75;4991136;28;20370;-86
2023/01/10 05:09:37;;;;;;;;;;;;;;;19.64;34.18;97458.47;4978522;28;19925;-86
2023/01/10 05:12:03;;;;;;;;;;;;;;;19.61;34.32;97469.66;4979333;28;19922;-86
2023/01/10 05:14:29;;;;;;;;;;;;;;;20.39;32.82;97464.53;4975920;28;20423;-87
2023/01/10 05:16:55;;;;;;;;;;;;;;;19.06;34.64;97467.16;4987533;28;19936;-87
2023/01/10 05:19:21;;;;;;;;;;;;;;;17.94;35.97;97475.31;4985040;28;19921;-86
2023/01/10 05:21:47;;;;;;;;;;;;;;;15.24;40.12;97489.09;4990582;28;19922;-86
2023/01/10 05:24:13;;;;;;;;;;;;;;;16.13;41.35;97479.00;4976673;28;20400;-86
2023/01/10 05:26:39;;;;;;;;;;;;;;;15.20;41.78;97491.06;4982364;28;19926;-85
2023/01/10 05:29:05;;;;;;;;;;;;;;;15.22;42.72;97500.53;4981073;28;19918;-85
2023/01/10 05:31:31;;;;;;;;;;;;;;;15.78;41.78;97490.84;4983355;28;20301;-84
2023/01/10 05:33:57;;;;;;;;;;;;;;;16.57;40.32;97510.69;4984378;28;19933;-85
2023/01/10 05:36:23;;;;;;;;;;;;;;;16.58;39.42;97503.19;4989371;28;19922;-85
2023/01/10 05:38:49;;;;;;;;;;;;;;;17.62;37.01;97513.59;4986480;28;20450;-86
2023/01/10 05:41:15;;;;;;;;;;;;;;;17.51;37.09;97515.56;4982453;28;19925;-86
2023/01/10 05:43:41;;;;;;;;;;;;;;;18.88;35.08;97508.28;4987425;28;19922;-89
2023/01/10 05:46:07;;;;;;;;;;;;;;;18.76;35.23;97514.38;4984474;28;19933;-86
2023/01/10 05:48:33;;;;;;;;;;;;;;;18.56;35.27;97511.34;4981295;28;20008;-86
2023/01/10 05:50:59;;;;;;;;;;;;;;;19.60;33.29;97519.00;4986157;28;19962;-86
2023/01/10 05:53:26;;;;;;;;;;;;;;;18.64;34.75;97526.78;4982091;28;19969;-84
2023/01/10 05:56:01;;;;;;;;;;;;;;;21.22;31.47;97529.59;4980351;28;19928;-84
2023/01/10 05:58:28;;;;;;;;;;;;;;;20.90;31.26;97532.97;4984890;28;19929;-84
2023/01/10 06:00:55;;;;;;;;;;;;;;;21.71;30.54;97530.59;4973412;28;20008;-84
2023/01/10 06:03:21;;;;;;;;;;;;;;;20.16;31.63;97538.94;4986428;28;19918;-84
2023/01/10 06:05:47;;;;;;;;;;;;;;;18.87;34.69;97548.41;4992106;28;19918;-84
2023/01/10 06:08:13;;;;;;;;;;;;;;;18.71;34.42;97539.84;4992682;28;20004;-84
2023/01/10 06:10:39;;;;;;;;;;;;;;;21.03;30.77;97549.84;4994409;28;19957;-84
2023/01/10 06:13:05;;;;;;;;;;;;;;;19.27;33.26;97553.19;4994167;28;20330;-84
2023/01/10 06:15:32;;;;;;;;;;;;;;;19.56;33.45;97548.09;4989404;28;19922;-84
2023/01/10 06:17:58;;;;;;;;;;;;;;;18.08;35.92;97563.31;4980256;28;19965;-84
2023/01/10 06:20:24;;;;;;;;;;;;;;;17.18;37.64;97575.94;4974491;28;20333;-84
2023/01/10 06:22:50;;;;;;;;;;;;;;;17.72;36.80;97574.59;5014193;28;19924;-84
2023/01/10 06:25:16;;;;;;;;;;;;;;;18.57;35.47;97580.47;5013171;28;19979;-84
2023/01/10 06:27:43;;;;;;;;;;;;;;;20.52;32.86;97582.59;5012617;28;20385;-84
2023/01/10 06:30:10;;;;;;;;;;;;;;;21.14;31.05;97587.56;5013862;28;20008;-83
2023/01/10 06:32:37;;;;;;;;;;;;;;;19.92;32.13;97594.59;4975515;28;19918;-83
2023/01/10 06:35:03;;;;;;;;;;;;;;;20.17;32.73;97590.66;4974762;28;20285;-84
2023/01/10 06:37:29;;;;;;;;;;;;;;;18.58;34.55;97600.69;4974954;28;20378;-84
2023/01/10 06:39:55;;;;;;;;;;;;;;;17.35;36.37;97609.59;4974859;28;19976;-84
2023/01/10 06:42:21;;;;;;;;;;;;;;;16.15;39.41;97613.13;4974896;28;20267;-84
2023/01/10 06:44:47;;;;;;;;;;;;;;;18.40;35.71;97609.16;4974573;28;19929;-84
2023/01/10 06:47:13;;;;;;;;;;;;;;;18.72;35.05;97608.94;4974857;28;19929;-84
2023/01/10 06:49:39;;;;;;;;;;;;;;;20.11;32.80;97601.50;4975018;28;19928;-83
2023/01/10 06:52:05;;;;;;;;;;;;;;;19.60;33.60;97605.34;4974669;28;19918;-84
2023/01/10 06:54:31;;;;;;;;;;;;;;;17.52;36.90;97614.34;4974711;28;20293;-85
2023/01/10 06:56:57;;;;;;;;;;;;;;;17.94;36.09;97614.19;4974634;28;19918;-85
2023/01/10 06:59:23;;;;;;;;;;;;;;;15.95;39.55;97622.19;4974582;28;19968;-83
2023/01/10 07:01:49;;;;;;;;;;;;;;;14.97;41.74;97626.78;4985029;28;20024;-83
2023/01/10 07:04:15;;;;;;;;;;;;;;;15.53;40.42;97633.88;4994041;28;19918;-82
2023/01/10 07:06:41;;;;;;;;;;;;;;;16.50;38.56;97632.59;4987876;28;19972;-82
2023/01/10 07:09:08;;;;;;;;;;;;;;;17.02;37.87;97638.56;4997670;28;19917;-82
2023/01/10 07:11:34;;;;;;;;;;;;;;;17.47;36.68;97643.28;5013611;28;20448;-83
2023/01/10 07:14:01;;;;;;;;;;;;;;;18.91;34.51;97643.75;5004616;28;20289;-83
2023/01/10 07:16:27;;;;;;;;;;;;;;;18.61;36.08;97655.50;4992137;28;19925;-83
2023/01/10 07:18:53;;;;;;;;;;;;;;;20.59;32.10;97652.22;4997802;28;19918;-83
2023/01/10 07:21:19;;;;;;;;;;;;;;;19.79;31.88;97654.06;4997727;28;20016;-84
2023/01/10 07:23:48;;;;;;;;;;;;;;;18.34;35.00;97660.00;4990930;28;20374;-83
2023/01/10 07:26:16;;;;;;;;;;;;;;;16.84;36.93;97657.19;4977996;28;20028;-83
2023/01/10 07:28:43;;;;;;;;;;;;;;;16.00;38.25;97664.13;4978409;28;20386;-84
2023/01/10 07:31:10;;;;;;;;;;;;;;;15.05;39.78;97661.59;4996306;28;19925;-84
2023/01/10 07:33:36;;;;;;;;;;;;;;;14.94;41.29;97657.16;4997545;28;19960;-84
2023/01/10 07:36:02;;;;;;;;;;;;;;;16.54;38.28;97658.38;4997649;28;19961;-84
2023/01/10 07:38:28;;;;;;;;;;;;;;;15.88;38.71;97668.03;4997391;28;19980;-83
2023/01/10 07:40:54;;;;;;;;;;;;;;;15.22;40.27;97671.19;4996526;28;19918;-83
2023/01/10 07:43:20;;;;;;;;;;;;;;;14.39;42.10;97673.66;4982675;28;20378;-84
2023/01/10 07:45:46;;;;;;;;;;;;;;;12.97;45.56;97681.19;4977728;28;19922;-83
2023/01/10 07:48:12;;;;;;;;;;;;;;;13.73;45.44;97681.91;4977754;28;19973;-83
2023/01/10 07:50:39;;;;;;;;;;;;;;;16.49;39.31;97663.47;4977878;28;19929;-83
2023/01/10 07:53:06;;;;;;;;;;;;;;;17.45;36.40;97669.84;4977761;28;19925;-83
2023/01/10 07:55:34;;;;;;;;;;;;;;;19.43;34.43;97666.75;4977565;28;19921;-83
2023/01/10 07:58:01;;;;;;;;;;;;;;;20.17;32.49;97671.50;4978158;28;20057;-83
2023/01/10 08:00:27;;;;;;;;;;;;;;;20.41;30.96;97681.56;4988301;28;19913;-83
2023/01/10 08:02:53;;;;;;;;;;;;;;;19.64;32.35;97684.06;4996963;28;20409;-83
2023/01/10 08:05:19;;;;;;;;;;;;;;;19.97;31.50;97688.88;4997114;28;19973;-83
2023/01/10 08:07:46;;;;;;;;;;;;;;;21.14;30.66;97688.06;4996978;28;19924;-83
2023/01/10 08:10:12;;;;;;;;;;;;;;;21.63;29.67;97696.81;4996799;28;19989;-83
2023/01/10 08:12:38;;;;;;;;;;;;;;;22.61;27.95;97700.44;4996703;28;19961;-83
2023/01/10 08:15:04;;;;;;;;;;;;;;;22.92;27.30;97712.16;4987103;28;20403;-83
2023/01/10 08:17:33;;;;;;;;;;;;;;;23.34;27.81;97707.53;4992549;28;19918;-83
2023/01/10 08:19:59;;;;;;;;;;;;;;;23.79;26.87;97704.81;4996767;28;20377;-83
2023/01/10 08:22:25;;;;;;;;;;;;;;;24.03;27.20;97706.97;4996873;28;19924;-83
2023/01/10 08:24:51;;;;;;;;;;;;;;;23.77;26.58;97707.28;4977326;28;20008;-83
2023/01/10 08:27:18;;;;;;;;;;;;;;;23.74;27.64;97719.38;4975245;28;19918;-83
2023/01/10 08:29:44;;;;;;;;;;;;;;;23.84;26.99;97719.09;4979548;28;19965;-83
2023/01/10 08:32:10;;;;;;;;;;;;;;;23.83;26.80;97731.53;4986653;28;20267;-83
2023/01/10 08:34:36;;;;;;;;;;;;;;;23.95;27.35;97728.00;4976842;28;20306;-82
2023/01/10 08:37:02;;;;;;;;;;;;;;;24.13;27.67;97726.78;4976975;28;19924;-83
2023/01/10 08:39:31;;;;;;;;;;;;;;;24.18;26.02;97726.22;4983242;28;19956;-83
2023/01/10 08:41:57;;;;;;;;;;;;;;;23.90;26.30;97734.13;4978634;28;19965;-83
2023/01/10 08:44:25;;;;;;;;;;;;;;;23.88;27.22;97747.03;4976620;28;20334;-83
2023/01/10 08:46:51;;;;;;;;;;;;;;;23.88;26.45;97753.44;4976910;28;20260;-82
2023/01/10 08:49:17;;;;;;;;;;;;;;;23.90;26.36;97762.19;4977503;28;19914;-83
2023/01/10 08:51:43;;;;;;;;;;;;;;;23.96;27.13;97760.44;4976414;28;20429;-83
2023/01/10 08:54:09;;;;;;;;;;;;;;;24.21;26.69;97748.56;4976842;28;19922;-82
2023/01/10 08:56:36;;;;;;;;;;;;;;;24.12;27.70;97761.66;4976412;28;19960;-83
2023/01/10 08:59:02;;;;;;;;;;;;;;;24.25;26.46;97766.06;4976519;28;19925;-83
2023/01/10 09:01:28;;;;;;;;;;;;;;;24.52;27.64;97776.97;4993007;28;19914;-83
2023/01/10 09:03:54;;;;;;;;;;;;;;;24.72;27.26;97786.78;4995836;28;20370;-83
2023/01/10 09:06:20;;;;;;;;;;;;;;;24.89;26.84;97784.72;4995158;28;19924;-83
2023/01/10 09:08:46;;;;;;;;;;;;;;;25.04;26.99;97783.03;4977799;28;19918;-83
2023/01/10 09:11:12;;;;;;;;;;;;;;;25.02;26.48;97787.56;4975945;28;20460;-83
2023/01/10 09:13:39;;;;;;;;;;;;;;;25.08;26.99;97782.94;4976128;28;19918;-83
2023/01/10 09:16:05;;;;;;;;;;;;;;;25.02;26.22;97781.94;4994324;28;19925;-83
2023/01/10 09:18:32;;;;;;;;;;;;;;;25.00;26.30;97788.00;4995696;28;19922;-83
2023/01/10 09:20:58;;;;;;;;;;;;;;;24.80;25.76;97795.03;4995384;28;19925;-83
2023/01/10 09:23:24;;;;;;;;;;;;;;;24.43;26.75;97788.03;4983400;28;19926;-83
2023/01/10 09:25:51;;;;;;;;;;;;;;;24.38;26.77;97797.00;4975795;28;19925;-83
2023/01/10 09:28:17;;;;;;;;;;;;;;;24.54;27.42;97799.75;4977982;28;19995;-83
2023/01/10 09:30:43;;;;;;;;;;;;;;;24.54;26.55;97805.38;4995709;28;19921;-82
2023/01/10 09:33:10;;;;;;;;;;;;;;;24.59;25.97;97804.81;4995166;28;19922;-83
2023/01/10 09:35:37;;;;;;;;;;;;;;;24.21;27.17;97810.28;4995359;28;19918;-83
2023/01/10 09:38:03;;;;;;;;;;;;;;;24.54;27.07;97810.97;4994816;28;19918;-82
2023/01/10 09:40:38;;;;;;;;;;;;;;;24.80;27.05;97798.63;4981483;28;19928;-83
2023/01/10 09:43:10;;;;;;;;;;;;;;;24.53;26.11;97800.97;4975583;28;19925;-83
2023/01/10 09:45:59;;;;;;;;;;;;;;;24.18;27.29;97807.59;4975956;28;19926;-83
2023/01/10 09:48:25;;;;;;;;;;;;;;;24.24;26.97;97814.22;4979884;28;19924;-83
2023/01/10 09:51:10;;;;;;;;;;;;;;;24.35;25.96;97806.28;4995090;28;20008;-83
2023/01/10 09:53:39;;;;;;;;;;;;;;;24.22;26.41;97811.88;4994964;28;19918;-82
2023/01/10 09:56:06;;;;;;;;;;;;;;;22.73;28.01;97815.78;4993406;28;19918;-83
2023/01/10 09:58:33;;;;;;;;;;;;;;;22.81;28.08;97820.78;4979343;28;19918;-83
2023/01/10 10:01:03;;;;;;;;;;;;;;;22.90;28.72;97826.59;4994901;28;19929;-83
2023/01/10 10:03:29;;;;;;;;;;;;;;;23.24;28.06;97832.63;4994686;28;19996;-82
2023/01/10 10:05:55;;;;;;;;;;;;;;;22.77;28.79;97834.06;4994726;28;19926;-82
2023/01/10 10:08:21;;;;;;;;;;;;;;;22.05;29.16;97840.63;4994562;28;19924;-82
2023/01/10 10:10:50;;;;;;;;;;;;;;;22.11;29.47;97839.69;4994546;28;19968;-82
2023/01/10 10:13:28;;;;;;;;;;;;;;;22.06;29.58;97842.19;4994078;28;19925;-82
2023/01/10 10:16:01;;;;;;;;;;;;;;;21.92;29.71;97854.41;4982532;28;19929;-82
2023/01/10 10:18:37;;;;;;;;;;;;;;;21.95;29.90;97850.78;4991699;28;19917;-82
2023/01/10 10:21:11;;;;;;;;;;;;;;;21.26;29.74;97843.06;4994537;28;20393;-82
2023/01/10 10:23:48;;;;;;;;;;;;;;;21.37;30.17;97849.28;4994283;28;19992;-82
2023/01/10 10:26:19;;;;;;;;;;;;;;;20.73;30.99;97851.28;4994533;28;20234;-82
2023/01/10 10:28:51;;;;;;;;;;;;;;;20.90;30.87;97853.88;4994385;28;19961;-82
2023/01/10 10:31:24;;;;;;;;;;;;;;;20.48;31.44;97852.38;4983260;28;19918;-82
2023/01/10 10:33:59;;;;;;;;;;;;;;;20.21;32.01;97851.44;4974734;28;19918;-82
2023/01/10 10:36:25;;;;;;;;;;;;;;;20.09;32.43;97854.75;4974964;28;19919;-82
2023/01/10 10:38:53;;;;;;;;;;;;;;;19.48;33.58;97862.03;4992276;28;19928;-82
2023/01/10 10:41:31;;;;;;;;;;;;;;;21.14;31.51;97866.72;4974909;28;19961;-82
2023/01/10 10:44:02;;;;;;;;;;;;;;;20.86;31.13;97869.06;4974849;28;19933;-82
2023/01/10 10:46:29;;;;;;;;;;;;;;;20.72;31.28;97878.41;4957490;28;20016;-82
2023/01/10 10:49:00;;;;;;;;;;;;;;;20.63;31.70;97870.53;4988035;28;19930;-82
2023/01/10 10:51:29;;;;;;;;;;;;;;;20.64;31.67;97874.13;4977915;28;19918;-82
2023/01/10 10:53:56;;;;;;;;;;;;;;;21.66;31.17;97875.56;4978928;28;20374;-82
2023/01/10 10:56:23;;;;;;;;;;;;;;;21.20;31.08;97879.03;4978765;28;19918;-82
2023/01/10 10:58:52;;;;;;;;;;;;;;;20.00;32.86;97885.06;4994816;28;19921;-82
2023/01/10 11:01:18;;;;;;;;;;;;;;;20.40;32.47;97891.88;4998329;28;19918;-82
2023/01/10 11:03:47;;;;;;;;;;;;;;;19.77;33.23;97891.22;4998104;28;19918;-82
2023/01/10 11:06:13;;;;;;;;;;;;;;;20.26;32.67;97894.81;4984651;28;19918;-82
2023/01/10 11:08:42;;;;;;;;;;;;;;;20.49;32.57;97895.00;4997900;28;20310;-82
2023/01/10 11:11:16;;;;;;;;;;;;;;;20.30;32.24;97901.97;4997868;28;19925;-82
2023/01/10 11:13:46;;;;;;;;;;;;;;;19.38;34.04;97912.19;4997438;28;19953;-82
2023/01/10 11:16:25;;;;;;;;;;;;;;;19.61;33.00;97915.22;4997855;28;20064;-82
2023/01/10 11:19:12;;;;;;;;;;;;;;;19.82;33.02;97917.84;4997907;28;20394;-82
2023/01/10 11:21:39;;;;;;;;;;;;;;;18.31;34.88;97916.47;4987491;28;19918;-82
2023/01/10 11:24:18;;;;;;;;;;;;;;;17.15;37.04;97929.03;4978256;28;19918;-81
2023/01/10 11:26:44;;;;;;;;;;;;;;;18.01;35.54;97930.00;4978423;28;20008;-82
2023/01/10 11:29:19;;;;;;;;;;;;;;;18.46;34.59;97929.97;4996590;28;20374;-82
2023/01/10 11:31:46;;;;;;;;;;;;;;;17.54;36.05;97943.03;4997795;28;19925;-82
2023/01/10 11:34:24;;;;;;;;;;;;;;;16.87;36.89;97955.84;4997409;28;19914;-82
2023/01/10 11:36:52;;;;;;;;;;;;;;;17.16;37.68;97947.25;4997481;28;19922;-81
2023/01/10 11:39:18;;;;;;;;;;;;;;;18.81;35.53;97958.91;4996457;28;19921;-82
2023/01/10 11:41:44;;;;;;;;;;;;;;;18.49;35.51;97951.44;4979855;28;19918;-82
2023/01/10 11:44:29;;;;;;;;;;;;;;;21.05;33.11;97952.97;4978051;28;19926;-81
2023/01/10 11:46:57;;;;;;;;;;;;;;;22.11;30.92;97948.75;4977939;28;19918;-81
2023/01/10 11:49:26;;;;;;;;;;;;;;;20.39;31.79;97969.19;4987095;28;19918;-81
2023/01/10 11:51:55;;;;;;;;;;;;;;;20.77;32.22;97974.81;4977864;28;19918;-81
2023/01/10 11:54:25;;;;;;;;;;;;;;;19.75;32.99;97977.22;4978039;28;20030;-82
2023/01/10 11:56:59;;;;;;;;;;;;;;;19.23;34.26;97972.66;4978193;28;20016;-81
2023/01/10 11:59:26;;;;;;;;;;;;;;;20.17;32.67;97976.13;4977800;28;20001;-81
2023/01/10 12:01:55;;;;;;;;;;;;;;;21.03;31.24;97974.13;4976778;28;20289;-81
2023/01/10 12:04:22;;;;;;;;;;;;;;;20.75;30.77;97983.59;4977521;28;20001;-81
2023/01/10 12:06:49;;;;;;;;;;;;;;;21.30;30.19;97984.22;4977464;28;19918;-81
2023/01/10 12:09:35;;;;;;;;;;;;;;;22.38;29.58;97985.84;4977495;28;19972;-81
2023/01/10 12:12:21;;;;;;;;;;;;;;;22.36;28.31;97991.06;4939580;28;19923;-81
2023/01/10 12:14:48;;;;;;;;;;;;;;;22.87;28.42;98000.25;4944241;29;19931;-81
2023/01/10 12:17:25;;;;;;;;;;;;;;;23.00;28.96;98004.78;4938933;29;20298;-81
2023/01/10 12:19:52;;;;;;;;;;;;;;;22.28;28.48;98011.22;4944444;28;19925;-81
2023/01/10 12:22:23;;;;;;;;;;;;;;;21.76;29.61;98010.75;4957858;29;19918;-81
2023/01/10 12:24:51;;;;;;;;;;;;;;;22.16;29.27;98020.97;4957863;29;19923;-81
2023/01/10 12:27:17;;;;;;;;;;;;;;;22.71;30.37;98017.69;4957708;29;19919;-81
2023/01/10 12:29:46;;;;;;;;;;;;;;;22.31;29.33;98027.91;4951174;28;20391;-81
2023/01/10 12:32:32;;;;;;;;;;;;;;;22.25;29.42;98024.03;4938396;29;20410;-81
2023/01/10 12:35:01;;;;;;;;;;;;;;;21.48;29.92;98025.88;4938259;29;19918;-81
2023/01/10 12:37:47;;;;;;;;;;;;;;;21.62;30.38;98033.28;4938648;29;19926;-81
2023/01/10 12:40:34;;;;;;;;;;;;;;;21.24;30.27;98022.16;4956897;29;20363;-81
2023/01/10 12:46:25;;;;;;;;;;;;;;;19.05;33.68;98035.94;4936264;29;20411;-81
2023/01/10 12:48:55;;;;;;;;;;;;;;;18.82;34.44;98027.25;4945106;28;19919;-81
2023/01/10 12:51:24;;;;;;;;;;;;;;;19.77;33.23;98024.94;4938282;29;19973;-81
2023/01/10 12:53:57;;;;;;;;;;;;;;;21.04;30.86;98032.38;4938262;29;19918;-81
2023/01/10 12:56:23;;;;;;;;;;;;;;;21.37;30.53;98033.59;4943200;29;20345;-81
2023/01/10 12:59:07;;;;;;;;;;;;;;;20.89;31.05;98036.47;4957523;28;19922;-83
2023/01/10 13:01:35;;;;;;;;;;;;;;;20.70;31.37;98041.84;4957088;28;20338;-83
2023/01/10 13:04:02;;;;;;;;;;;;;;;21.47;30.35;98043.06;4948548;28;19942;-83
2023/01/10 13:06:33;;;;;;;;;;;;;;;22.14;29.71;98042.97;4937811;29;20433;-83